Time;durP1;ratioP1;P1;durP2;ratioP2;P2;SDS_P1;SDS_P2;PMS_P1;PMS_P2;Temp;Humidity;BMP_temperature;BMP_pressure;BME280_temperature;BME280_humidity;BME280_pressure;Samples;Min_cycle;Max_cycle;Signal;HPM_P1;HPM_P2
2022/06/03 00:01:43;;;;;;;2.30;1.70;;;9.50;99.90;9.40;101207.00;;;;4978311;28;87693;-69
2022/06/03 00:04:21;;;;;;;2.17;1.27;;;9.50;99.90;9.40;101216.00;;;;4994871;28;90251;-69
2022/06/03 00:07:30;;;;;;;1.30;1.20;;;9.50;99.90;9.30;101204.00;;;;4974569;28;86764;-69
2022/06/03 00:10:25;;;;;;;3.73;1.60;;;9.50;99.90;9.20;101197.00;;;;4978852;28;87471;-69
2022/06/03 00:13:32;;;;;;;1.50;1.40;;;9.40;99.90;9.20;101200.00;;;;4993977;28;87435;-69
2022/06/03 00:16:31;;;;;;;2.73;1.87;;;9.40;99.90;9.20;101198.00;;;;4975567;28;100222;-69
2022/06/03 00:19:35;;;;;;;1.97;1.37;;;9.30;99.90;9.10;101196.00;;;;5009491;28;87435;-70
2022/06/03 00:22:31;;;;;;;2.40;2.20;;;9.30;99.90;9.00;101212.00;;;;4993949;28;87132;-69
2022/06/03 00:25:07;;;;;;;2.87;1.90;;;9.20;99.90;9.00;101200.00;;;;4989641;28;94386;-69
2022/06/03 00:28:21;;;;;;;2.07;1.50;;;9.20;99.90;8.80;101210.00;;;;4975023;28;98414;-69
2022/06/03 00:31:31;;;;;;;2.07;1.97;;;9.10;99.90;8.80;101200.00;;;;4960916;28;90255;-69
2022/06/03 00:34:17;;;;;;;1.70;1.60;;;9.10;99.90;8.80;101209.00;;;;4994063;28;87435;-69
2022/06/03 00:37:09;;;;;;;2.27;2.07;;;8.90;99.90;8.60;101223.00;;;;5007178;28;98321;-69
2022/06/03 00:39:50;;;;;;;2.73;2.13;;;8.80;99.90;8.60;101208.00;;;;4989409;28;89116;-69
2022/06/03 00:42:59;;;;;;;1.90;1.77;;;8.70;99.90;8.50;101210.00;;;;4973884;28;87417;-69
2022/06/03 00:45:37;;;;;;;1.43;1.27;;;8.70;99.90;8.50;101213.00;;;;4963165;28;88491;-69
2022/06/03 00:48:29;;;;;;;1.57;1.33;;;8.60;99.90;8.40;101208.00;;;;4994074;28;87191;-69
2022/06/03 00:51:22;;;;;;;2.23;2.13;;;8.60;99.90;8.40;101206.00;;;;5008071;28;99353;-69
2022/06/03 00:54:29;;;;;;;1.80;1.70;;;8.50;99.90;8.30;101206.00;;;;4994026;28;87910;-68
2022/06/03 00:57:25;;;;;;;2.50;2.20;;;8.50;99.90;8.30;101199.00;;;;4970951;28;111493;-69
2022/06/03 01:00:20;;;;;;;1.90;1.20;;;8.50;99.90;8.30;101195.00;;;;4995139;28;87406;-69
2022/06/03 01:03:17;;;;;;;1.97;1.80;;;8.50;99.90;8.30;101191.00;;;;4994101;28;87430;-69
2022/06/03 01:05:57;;;;;;;3.33;1.97;;;8.40;99.90;8.30;101184.00;;;;4975348;28;109800;-69
2022/06/03 01:09:09;;;;;;;1.90;1.60;;;8.30;99.90;8.20;101187.00;;;;5008898;28;88190;-69
2022/06/03 01:12:19;;;;;;;3.00;1.43;;;8.30;99.90;8.10;101177.00;;;;4992608;28;102232;-69
2022/06/03 01:15:13;;;;;;;2.17;1.97;;;8.30;99.90;8.00;101181.00;;;;5008575;28;88197;-69
2022/06/03 01:18:10;;;;;;;1.90;1.60;;;8.20;99.90;8.00;101177.00;;;;4976531;28;105570;-69
2022/06/03 01:21:28;;;;;;;1.50;1.40;;;8.20;99.90;8.00;101182.00;;;;4991877;28;89430;-69
2022/06/03 01:24:35;;;;;;;2.80;2.23;;;8.10;99.90;7.90;101169.00;;;;4989056;28;87700;-69
2022/06/03 01:27:39;;;;;;;2.37;2.17;;;8.10;99.90;7.80;101170.00;;;;4972502;28;96621;-69
2022/06/03 01:30:39;;;;;;;3.00;2.13;;;8.00;99.90;7.80;101168.00;;;;4988279;28;110217;-69
2022/06/03 01:33:33;;;;;;;4.00;2.57;;;7.90;99.90;7.70;101167.00;;;;4978312;28;87726;-69
2022/06/03 01:36:52;;;;;;;2.10;1.77;;;7.90;99.90;7.60;101166.00;;;;4974631;28;101472;-69
2022/06/03 01:39:45;;;;;;;2.33;2.07;;;7.80;99.90;7.50;101162.00;;;;4993422;28;86930;-69
2022/06/03 01:42:44;;;;;;;1.97;1.87;;;7.70;99.90;7.40;101163.00;;;;4993055;28;87426;-69
2022/06/03 01:46:12;;;;;;;2.57;1.77;;;7.60;99.90;7.40;101152.00;;;;4969904;28;108107;-69
2022/06/03 01:49:17;;;;;;;2.17;1.97;;;7.60;99.90;7.30;101158.00;;;;4984663;28;87398;-69
2022/06/03 01:52:04;;;;;;;2.20;1.70;;;7.50;99.90;7.30;101166.00;;;;4994176;28;100707;-69
2022/06/03 01:55:11;;;;;;;7.83;2.30;;;7.40;99.90;7.20;101161.00;;;;4994248;28;99976;-69
2022/06/03 01:58:09;;;;;;;2.17;1.97;;;7.40;99.90;7.20;101157.00;;;;4992130;28;87488;-69
2022/06/03 02:00:38;;;;;;;2.13;1.93;;;7.30;99.90;7.20;101157.00;;;;5008345;28;88140;-69
2022/06/03 02:03:58;;;;;;;1.97;1.87;;;7.30;99.90;7.10;101153.00;;;;4991649;28;102949;-69
2022/06/03 02:07:12;;;;;;;2.73;2.17;;;7.30;99.90;7.00;101160.00;;;;4986843;28;86873;-69
2022/06/03 02:10:05;;;;;;;2.37;2.17;;;7.20;99.90;7.00;101147.00;;;;4969963;28;87154;-69
2022/06/03 02:13:17;;;;;;;2.30;1.70;;;7.10;99.90;6.90;101153.00;;;;4974051;28;87723;-69
2022/06/03 02:16:34;;;;;;;2.43;1.57;;;7.10;99.90;6.80;101155.00;;;;4992567;28;87956;-69
2022/06/03 02:20:02;;;;;;;2.13;1.73;;;7.00;99.90;6.70;101154.00;;;;5006799;28;87438;-69
2022/06/03 02:22:39;;;;;;;3.13;2.10;;;6.90;99.90;6.70;101157.00;;;;4992484;28;87192;-69
2022/06/03 02:25:24;;;;;;;2.17;2.00;;;6.90;99.90;6.70;101144.00;;;;4992248;28;92981;-69
2022/06/03 02:28:07;;;;;;;2.17;1.83;;;6.80;99.90;6.70;101156.00;;;;4991826;28;89125;-69
2022/06/03 02:31:08;;;;;;;1.70;1.53;;;6.80;99.90;6.70;101141.00;;;;4993045;28;88502;-69
2022/06/03 02:33:46;;;;;;;1.70;1.60;;;6.80;99.90;6.70;101152.00;;;;4973246;28;108072;-69
2022/06/03 02:36:44;;;;;;;1.90;1.53;;;6.80;99.90;6.70;101142.00;;;;4973490;28;97223;-69
2022/06/03 02:39:37;;;;;;;2.83;1.97;;;6.80;99.90;6.70;101141.00;;;;5007681;28;87429;-69
2022/06/03 02:42:39;;;;;;;2.03;1.83;;;6.80;99.90;6.60;101148.00;;;;5006003;28;109368;-69
2022/06/03 02:45:29;;;;;;;2.70;2.00;;;6.80;99.90;6.60;101146.00;;;;4992990;28;88749;-69
2022/06/03 02:48:36;;;;;;;2.67;2.00;;;6.80;99.90;6.50;101150.00;;;;5005986;28;87350;-69
2022/06/03 02:51:33;;;;;;;2.57;2.23;;;6.70;99.90;6.50;101145.00;;;;4954581;28;87069;-69
2022/06/03 02:54:42;;;;;;;2.30;2.10;;;6.70;99.90;6.40;101144.00;;;;4967263;28;87492;-69
2022/06/03 02:57:31;;;;;;;2.27;2.07;;;6.60;99.90;6.40;101143.00;;;;4976912;28;87663;-69
2022/06/03 03:00:20;;;;;;;1.93;1.83;;;6.50;99.90;6.40;101145.00;;;;4995480;28;87922;-69
2022/06/03 03:03:34;;;;;;;2.00;1.80;;;6.50;99.90;6.30;101144.00;;;;4978655;28;87740;-69
2022/06/03 03:06:50;;;;;;;1.97;1.87;;;6.50;99.90;6.30;101146.00;;;;4995554;28;86544;-69
2022/06/03 03:09:46;;;;;;;2.50;2.00;;;6.50;99.90;6.20;101150.00;;;;4992015;28;88262;-69
2022/06/03 03:12:52;;;;;;;1.73;1.63;;;6.40;99.90;6.30;101153.00;;;;5010580;28;87568;-69
2022/06/03 03:15:47;;;;;;;1.50;1.40;;;6.40;99.90;6.30;101142.00;;;;4995286;28;87914;-69
2022/06/03 03:19:10;;;;;;;1.27;1.17;;;6.50;99.90;6.40;101143.00;;;;4975568;28;88670;-69
2022/06/03 03:22:26;;;;;;;1.97;1.77;;;6.50;99.90;6.40;101160.00;;;;4995028;28;86995;-69
2022/06/03 03:25:28;;;;;;;2.63;2.03;;;6.60;99.90;6.40;101156.00;;;;4973186;28;105316;-69
2022/06/03 03:28:36;;;;;;;2.30;2.10;;;6.60;99.90;6.40;101156.00;;;;4960710;28;87002;-69
2022/06/03 03:31:32;;;;;;;1.83;1.70;;;6.60;99.90;6.40;101151.00;;;;4991587;28;87576;-69
2022/06/03 03:34:20;;;;;;;2.20;2.00;;;6.60;99.90;6.40;101153.00;;;;5008554;28;87539;-69
2022/06/03 03:37:17;;;;;;;2.07;1.97;;;6.60;99.90;6.40;101157.00;;;;4995059;28;89498;-69
2022/06/03 03:40:22;;;;;;;3.93;2.27;;;6.60;99.90;6.40;101157.00;;;;4982656;28;89840;-69
2022/06/03 03:43:16;;;;;;;1.97;1.77;;;6.50;99.90;6.40;101163.00;;;;4969685;28;87764;-69
2022/06/03 03:46:46;;;;;;;1.93;1.70;;;6.50;99.90;6.40;101167.00;;;;4989137;28;97004;-69
2022/06/03 03:50:08;;;;;;;3.03;2.60;;;6.60;99.90;6.50;101169.00;;;;4987153;28;91577;-69
2022/06/03 03:53:20;;;;;;;2.60;2.27;;;6.60;99.90;6.60;101169.00;;;;4993290;28;87690;-69
2022/06/03 03:56:29;;;;;;;4.93;2.50;;;6.70;99.90;6.70;101164.00;;;;4976697;28;87326;-69
2022/06/03 03:59:47;;;;;;;2.20;2.07;;;6.80;99.90;6.90;101164.00;;;;4958855;28;89879;-69
2022/06/03 04:02:55;;;;;;;2.07;1.87;;;7.00;99.90;7.10;101153.00;;;;4994195;28;87077;-69
2022/06/03 04:06:17;;;;;;;3.17;2.07;;;7.20;99.90;7.20;101171.00;;;;5009718;28;86923;-69
2022/06/03 04:09:39;;;;;;;2.73;2.53;;;7.30;99.90;7.40;101171.00;;;;4975206;28;89100;-68
2022/06/03 04:12:41;;;;;;;2.20;2.00;;;7.40;99.90;7.60;101161.00;;;;4993983;28;87345;-69
2022/06/03 04:15:44;;;;;;;3.20;2.80;;;7.60;99.90;7.80;101178.00;;;;4995008;28;87466;-69
2022/06/03 04:18:53;;;;;;;3.27;2.10;;;7.80;99.90;8.00;101183.00;;;;5008160;28;96397;-68
2022/06/03 04:21:45;;;;;;;4.20;2.70;;;8.00;99.90;8.20;101182.00;;;;4987958;28;87415;-69
2022/06/03 04:24:51;;;;;;;2.40;2.20;;;8.20;99.90;8.40;101180.00;;;;4994282;28;87297;-69
2022/06/03 04:27:58;;;;;;;2.53;2.33;;;8.40;99.90;8.60;101192.00;;;;4994520;28;87441;-69
2022/06/03 04:31:14;;;;;;;3.63;2.20;;;8.60;99.90;8.90;101178.00;;;;5006778;28;87723;-69
2022/06/03 04:33:55;;;;;;;4.13;2.63;;;9.20;99.90;9.10;101176.00;;;;4965375;28;90401;-69
2022/06/03 04:37:19;;;;;;;2.40;2.20;;;9.00;99.90;9.40;101171.00;;;;4987020;28;87326;-69
2022/06/03 04:40:33;;;;;;;3.33;2.43;;;9.30;99.90;9.60;101164.00;;;;4990417;28;103281;-68
2022/06/03 04:43:40;;;;;;;2.27;2.07;;;9.60;99.90;9.90;101173.00;;;;4998732;28;86874;-68
2022/06/03 04:46:34;;;;;;;3.20;2.77;;;9.80;99.90;10.10;101167.00;;;;5008950;28;87743;-68
2022/06/03 04:49:37;;;;;;;2.20;2.00;;;10.10;99.90;10.40;101165.00;;;;4992055;28;98355;-68
2022/06/03 04:52:28;;;;;;;2.80;2.53;;;10.30;99.90;10.70;101179.00;;;;4999060;28;87152;-68
2022/06/03 04:55:36;;;;;;;2.47;2.20;;;10.60;99.90;10.90;101177.00;;;;4989598;28;97867;-68
2022/06/03 04:58:55;;;;;;;3.37;2.30;;;10.80;99.90;11.20;101175.00;;;;4982365;28;110279;-68
2022/06/03 05:02:09;;;;;;;2.67;2.03;;;11.10;99.90;11.50;101182.00;;;;4930870;28;88859;-69
2022/06/03 05:05:36;;;;;;;2.37;2.20;;;11.40;99.90;11.80;101180.00;;;;5003760;28;87505;-68
2022/06/03 05:08:43;;;;;;;2.27;2.10;;;11.70;99.90;12.10;101181.00;;;;4987907;28;90706;-69
2022/06/03 05:11:38;;;;;;;1.80;1.60;;;11.90;99.90;12.30;101184.00;;;;4995413;28;86798;-68
2022/06/03 05:14:49;;;;;;;2.07;1.53;;;12.10;99.90;12.60;101189.00;;;;4980086;28;87468;-68
2022/06/03 05:17:46;;;;;;;2.50;2.30;;;12.40;99.90;12.90;101196.00;;;;4997303;28;87082;-69
2022/06/03 05:20:42;;;;;;;2.43;1.77;;;12.70;99.90;13.20;101202.00;;;;4976974;28;93028;-69
2022/06/03 05:23:45;;;;;;;4.43;1.90;;;13.00;99.90;13.50;101189.00;;;;5003608;28;87475;-69
2022/06/03 05:26:29;;;;;;;1.83;1.53;;;13.30;99.90;13.70;101190.00;;;;4990610;28;87598;-68
2022/06/03 05:29:03;;;;;;;1.70;1.53;;;13.60;99.90;14.00;101187.00;;;;5004404;28;86865;-69
2022/06/03 05:32:18;;;;;;;1.80;1.63;;;13.80;99.90;14.20;101185.00;;;;5004029;28;86988;-68
2022/06/03 05:35:05;;;;;;;1.70;1.60;;;14.10;99.90;14.50;101184.00;;;;4992879;28;87556;-69
2022/06/03 05:38:01;;;;;;;4.00;2.23;;;14.30;99.90;14.70;101182.00;;;;5003388;28;87859;-69
2022/06/03 05:40:49;;;;;;;2.67;1.93;;;14.50;99.90;14.90;101191.00;;;;5002173;28;86450;-69
2022/06/03 05:43:47;;;;;;;2.03;1.90;;;14.80;99.90;15.20;101188.00;;;;5002404;28;87259;-68
2022/06/03 05:46:26;;;;;;;2.50;1.80;;;15.00;99.90;15.40;101180.00;;;;4971856;28;89399;-68
2022/06/03 05:49:08;;;;;;;1.55;1.45;;;15.20;99.90;15.60;101181.00;;;;4978594;28;88218;-69
2022/06/03 05:51:58;;;;;;;2.33;1.88;;;15.40;99.90;15.90;101177.00;;;;4984038;28;86991;-68
2022/06/03 05:54:52;;;;;;;2.08;1.48;;;15.70;99.90;16.10;101184.00;;;;5018470;28;87108;-68
2022/06/03 05:57:51;;;;;;;2.15;1.67;;;15.90;99.90;16.40;101185.00;;;;4988226;28;108224;-68
2022/06/03 06:00:47;;;;;;;1.55;1.20;;;16.20;99.90;16.70;101188.00;;;;5000295;28;87483;-68
2022/06/03 06:03:51;;;;;;;1.60;1.50;;;16.40;98.20;16.90;101178.00;;;;4982750;28;87381;-68
2022/06/03 06:06:37;;;;;;;1.20;1.10;;;16.60;98.20;17.10;101172.00;;;;5007795;28;87360;-68
2022/06/03 06:09:31;;;;;;;1.38;1.08;;;16.90;97.00;17.40;101186.00;;;;4982464;28;87403;-68
2022/06/03 06:12:19;;;;;;;1.60;1.50;;;17.20;95.80;17.60;101176.00;;;;4982494;28;107517;-68
2022/06/03 06:15:12;;;;;;;2.42;1.17;;;17.40;93.80;17.80;101171.00;;;;4986720;28;87639;-68
2022/06/03 06:17:59;;;;;;;2.20;1.50;;;17.60;92.30;18.00;101176.00;;;;5004786;28;89076;-68
2022/06/03 06:20:58;;;;;;;0.70;0.70;;;17.80;91.30;18.20;101171.00;;;;4987053;28;103370;-68
2022/06/03 06:23:36;;;;;;;0.93;0.88;;;18.00;86.60;18.40;101166.00;;;;4998256;28;87402;-68
2022/06/03 06:26:33;;;;;;;0.98;0.98;;;18.20;87.30;18.80;101168.00;;;;5008581;28;86855;-68
2022/06/03 06:29:38;;;;;;;4.10;1.52;;;18.40;84.90;19.10;101159.00;;;;4980320;28;102137;-68
2022/06/03 06:32:39;;;;;;;1.20;1.05;;;18.80;83.90;19.40;101154.00;;;;4996552;28;87557;-68
2022/06/03 06:35:32;;;;;;;0.90;0.80;;;19.10;77.70;19.60;101147.00;;;;5000470;28;87479;-69
2022/06/03 06:38:36;;;;;;;1.08;0.63;;;19.30;71.50;19.70;101139.00;;;;5000595;28;86397;-69
2022/06/03 06:41:20;;;;;;;0.80;0.77;;;19.50;72.30;20.00;101132.00;;;;4950782;28;87678;-73
2022/06/03 06:43:50;;;;;;;1.13;0.70;;;19.70;68.20;20.20;101134.00;;;;4992395;28;87597;-72
2022/06/03 06:46:52;;;;;;;0.50;0.50;;;19.90;64.60;20.50;101143.00;;;;4987994;28;101850;-72
2022/06/03 06:49:35;;;;;;;0.50;0.50;;;20.10;63.00;20.60;101125.00;;;;4969414;28;104666;-73
2022/06/03 06:52:11;;;;;;;0.82;0.70;;;20.40;56.50;20.60;101126.00;;;;4973292;28;87802;-73
2022/06/03 06:54:52;;;;;;;0.50;0.50;;;20.40;55.60;20.70;101110.00;;;;5008024;28;87648;-72
2022/06/03 06:57:24;;;;;;;0.90;0.82;;;20.40;56.10;20.90;101115.00;;;;4971048;28;89966;-73
2022/06/03 07:00:05;;;;;;;0.55;0.55;;;20.60;56.10;21.10;101107.00;;;;4985607;28;103864;-72
2022/06/03 07:02:36;;;;;;;0.60;0.60;;;20.70;55.20;21.30;101117.00;;;;4978695;28;98775;-71
2022/06/03 07:05:19;;;;;;;0.70;0.70;;;21.00;55.50;21.60;101123.00;;;;4995594;28;86760;-74
2022/06/03 07:08:14;;;;;;;0.65;0.60;;;21.20;55.50;21.90;101117.00;;;;4984286;28;103377;-72
2022/06/03 07:11:14;;;;;;;0.45;0.45;;;21.50;53.30;22.10;101117.00;;;;4981344;28;87917;-72
2022/06/03 07:13:55;;;;;;;0.65;0.40;;;21.80;51.80;22.20;101113.00;;;;4965137;28;94131;-71
2022/06/03 07:20:16;;;;;;;0.70;0.70;;;22.00;51.40;22.50;101111.00;;;;4993896;28;87394;-72
2022/06/03 07:23:24;;;;;;;0.68;0.60;;;22.20;49.50;22.50;101109.00;;;;4965226;28;87425;-72
2022/06/03 07:26:04;;;;;;;0.73;0.60;;;22.30;48.70;22.60;101106.00;;;;4972770;28;87491;-72
2022/06/03 07:28:50;;;;;;;0.60;0.60;;;22.40;49.30;22.80;101085.00;;;;4974179;28;87940;-73
2022/06/03 07:31:38;;;;;;;0.60;0.50;;;22.50;48.10;22.90;101100.00;;;;4968316;28;89458;-74
2022/06/03 07:34:39;;;;;;;0.98;0.35;;;22.60;48.00;23.00;101095.00;;;;4975689;28;86694;-72
2022/06/03 07:37:32;;;;;;;1.15;0.82;;;22.70;47.40;23.10;101091.00;;;;4971893;28;87565;-73
2022/06/03 07:40:23;;;;;;;0.63;0.63;;;22.80;46.30;23.10;101101.00;;;;4984222;28;88277;-72
2022/06/03 07:43:02;;;;;;;0.88;0.38;;;22.80;46.60;23.10;101091.00;;;;4998257;28;90333;-73
2022/06/03 07:45:54;;;;;;;1.70;0.88;;;22.80;46.70;23.30;101091.00;;;;4988380;28;93639;-73
2022/06/03 07:48:23;;;;;;;0.68;0.45;;;23.00;47.20;23.40;101089.00;;;;4988825;28;89582;-72
2022/06/03 07:51:05;;;;;;;0.75;0.68;;;23.10;46.00;23.40;101086.00;;;;4988009;28;87717;-72
2022/06/03 07:53:40;;;;;;;1.33;0.80;;;23.20;46.00;23.60;101090.00;;;;4986693;28;87582;-73
2022/06/03 07:56:06;;;;;;;0.77;0.77;;;23.20;45.30;23.50;101080.00;;;;4984963;28;87513;-72
2022/06/03 07:58:38;;;;;;;1.05;0.70;;;23.30;45.60;23.60;101080.00;;;;4978773;28;87247;-74
2022/06/03 08:01:21;;;;;;;0.93;0.82;;;23.30;46.20;23.80;101079.00;;;;5003481;28;116792;-73
2022/06/03 08:03:47;;;;;;;2.70;0.88;;;23.50;45.00;24.00;101080.00;;;;4986189;28;88452;-72
2022/06/03 08:06:14;;;;;;;0.52;0.52;;;23.70;45.00;24.20;101080.00;;;;5009371;28;87501;-74
2022/06/03 08:11:32;;;;;;;0.85;0.82;;;23.90;43.70;24.30;101081.00;;;;5006052;28;87589;-72
2022/06/03 08:14:00;;;;;;;0.45;0.45;;;24.00;43.80;24.40;101082.00;;;;5008172;28;88239;-73
2022/06/03 08:16:41;;;;;;;0.80;0.57;;;24.00;44.00;24.50;101083.00;;;;5009473;28;87705;-74
2022/06/03 08:19:26;;;;;;;0.70;0.60;;;24.10;44.60;24.70;101079.00;;;;4986991;28;100212;-72
2022/06/03 08:22:15;;;;;;;0.65;0.65;;;24.40;44.80;25.00;101077.00;;;;4983301;28;87529;-72
2022/06/03 08:24:50;;;;;;;0.80;0.77;;;24.60;44.40;25.20;101084.00;;;;4990294;28;87316;-74
2022/06/03 08:27:26;;;;;;;0.60;0.60;;;24.80;43.20;25.40;101081.00;;;;4967551;28;86704;-71
2022/06/03 08:30:06;;;;;;;0.68;0.50;;;25.00;43.10;25.60;101083.00;;;;5019267;28;87771;-72
2022/06/03 08:32:39;;;;;;;0.55;0.50;;;25.20;42.90;25.60;101088.00;;;;4982466;28;88544;-73
2022/06/03 08:35:11;;;;;;;0.55;0.47;;;25.30;41.40;25.50;101087.00;;;;4982697;28;88435;-74
2022/06/03 08:37:54;;;;;;;0.95;0.60;;;25.20;42.20;25.70;101087.00;;;;4985243;28;87489;-72
2022/06/03 08:41:09;;;;;;;0.63;0.50;;;25.30;42.50;25.80;101086.00;;;;4987609;28;87672;-72
2022/06/03 08:44:22;;;;;;;0.93;0.43;;;25.50;42.20;26.10;101088.00;;;;4997981;28;87704;-74
2022/06/03 08:47:12;;;;;;;3.53;0.60;;;25.70;41.60;26.20;101091.00;;;;5003057;28;87368;-74
2022/06/03 08:50:22;;;;;;;0.60;0.60;;;25.80;41.60;26.30;101083.00;;;;5008882;28;87929;-72
2022/06/03 08:53:08;;;;;;;0.95;0.60;;;25.90;40.90;26.40;101082.00;;;;4930225;28;87316;-72
2022/06/03 08:55:43;;;;;;;0.90;0.68;;;26.00;41.50;26.40;101087.00;;;;4928410;28;110642;-72
2022/06/03 08:58:40;;;;;;;3.80;0.70;;;26.10;40.00;26.20;101083.00;;;;4962894;28;108658;-75
2022/06/03 09:01:36;;;;;;;0.77;0.65;;;25.90;39.60;26.10;101076.00;;;;5022852;28;87604;-72
2022/06/03 09:04:24;;;;;;;0.52;0.50;;;25.90;40.30;26.20;101084.00;;;;4999967;28;88977;-72
2022/06/03 09:07:26;;;;;;;0.52;0.52;;;25.90;40.70;26.40;101061.00;;;;4990363;28;87874;-72
2022/06/03 09:10:13;;;;;;;0.30;0.30;;;26.00;40.60;26.60;101081.00;;;;4989929;28;111026;-74
2022/06/03 09:13:03;;;;;;;0.90;0.70;;;26.20;39.50;26.70;101077.00;;;;4996783;28;88196;-72
2022/06/03 09:15:37;;;;;;;0.68;0.60;;;26.40;39.80;26.80;101060.00;;;;4991625;28;87434;-75
2022/06/03 09:18:17;;;;;;;0.30;0.30;;;26.40;39.40;26.90;101071.00;;;;4983724;28;87569;-73
2022/06/03 09:21:12;;;;;;;1.02;0.95;;;26.50;39.70;26.90;101068.00;;;;4985672;28;87557;-72
2022/06/03 09:23:48;;;;;;;1.23;0.55;;;26.50;38.60;26.70;101065.00;;;;4982543;28;86826;-75
2022/06/03 09:26:40;;;;;;;0.70;0.70;;;26.40;38.40;26.70;101062.00;;;;4989751;28;87838;-72
2022/06/03 09:29:10;;;;;;;0.38;0.32;;;26.40;38.90;26.70;101069.00;;;;4998475;28;87876;-72
2022/06/03 09:31:38;;;;;;;0.47;0.40;;;26.40;38.80;26.60;101063.00;;;;4988367;28;88409;-74
2022/06/03 09:34:07;;;;;;;0.50;0.50;;;26.30;38.70;26.60;101056.00;;;;4963834;28;90276;-72
2022/06/03 09:36:33;;;;;;;0.55;0.55;;;26.30;39.10;26.80;101061.00;;;;5019875;28;87854;-72
2022/06/03 09:39:16;;;;;;;0.47;0.40;;;26.40;38.80;26.80;101058.00;;;;4998656;28;87441;-72
2022/06/03 09:41:55;;;;;;;0.70;0.70;;;26.50;39.00;26.70;101059.00;;;;4989177;28;87124;-74
2022/06/03 09:44:24;;;;;;;1.00;0.80;;;26.40;39.00;26.50;101057.00;;;;4965935;28;87273;-73
2022/06/03 09:47:06;;;;;;;0.68;0.60;;;26.20;39.60;26.40;101058.00;;;;4985875;28;92949;-74
2022/06/03 09:49:32;;;;;;;0.98;0.98;;;26.20;39.40;26.40;101049.00;;;;4977747;28;109837;-74
2022/06/03 09:52:00;;;;;;;0.40;0.40;;;26.10;39.80;26.70;101040.00;;;;4962208;28;94578;-72
2022/06/03 09:54:31;;;;;;;0.32;0.32;;;26.20;40.20;27.10;101041.00;;;;4987137;28;92549;-73
2022/06/03 09:57:30;;;;;;;1.10;0.60;;;26.50;40.00;27.50;101037.00;;;;4985479;28;93591;-72
2022/06/03 10:00:17;;;;;;;0.90;0.57;;;26.90;39.50;27.60;101040.00;;;;5005391;28;93203;-74
2022/06/03 10:02:43;;;;;;;0.73;0.73;;;27.20;39.30;27.50;101038.00;;;;4966072;28;94529;-74
2022/06/03 10:05:12;;;;;;;0.80;0.77;;;27.10;39.30;27.70;101039.00;;;;4967402;28;108610;-72
2022/06/03 10:07:38;;;;;;;0.60;0.60;;;27.20;39.40;27.60;101041.00;;;;5015106;28;92431;-71
2022/06/03 10:12:56;;;;;;;1.30;0.47;;;27.20;39.10;27.50;101035.00;;;;4986550;28;92325;-72
2022/06/03 10:15:38;;;;;;;1.65;0.40;;;27.10;39.10;27.40;101038.00;;;;4987018;28;91422;-72
2022/06/03 10:18:19;;;;;;;0.52;0.52;;;27.10;39.20;27.40;101030.00;;;;4960415;28;92587;-72
2022/06/03 10:20:47;;;;;;;0.68;0.43;;;27.00;39.50;27.80;101026.00;;;;5003837;28;93015;-73
2022/06/03 10:23:14;;;;;;;0.60;0.60;;;27.20;39.90;28.10;101023.00;;;;5010054;28;92939;-75
2022/06/03 10:25:46;;;;;;;0.75;0.68;;;27.40;39.60;28.40;101020.00;;;;4959903;28;92355;-73
2022/06/03 10:28:14;;;;;;;1.05;0.43;;;27.70;39.70;28.60;101021.00;;;;4980184;28;92744;-75
2022/06/03 10:30:42;;;;;;;3.13;0.70;;;28.00;38.80;28.60;101016.00;;;;4973896;28;93063;-72
2022/06/03 10:33:22;;;;;;;0.70;0.70;;;28.00;38.90;28.80;101023.00;;;;4979189;28;92614;-75
2022/06/03 10:35:50;;;;;;;0.50;0.40;;;28.10;38.80;28.90;101005.00;;;;4984604;28;92747;-73
2022/06/03 10:38:19;;;;;;;0.77;0.55;;;28.30;38.80;28.80;101013.00;;;;4973027;28;92306;-73
2022/06/03 10:40:52;;;;;;;0.95;0.85;;;28.30;38.00;28.80;101004.00;;;;4975194;28;91866;-72
2022/06/03 10:43:30;;;;;;;0.65;0.65;;;28.30;38.60;28.90;101009.00;;;;4977233;28;121394;-72
2022/06/03 10:46:19;;;;;;;0.90;0.77;;;28.30;38.30;28.90;101004.00;;;;4980166;28;92888;-72
2022/06/03 10:48:46;;;;;;;1.25;0.80;;;28.30;38.10;28.80;100994.00;;;;4990352;28;93654;-72
2022/06/03 11:03:09;;;;;;;0.52;0.50;;;28.40;38.60;28.90;100990.00;;;;4943968;28;94028;-73
2022/06/03 11:05:37;;;;;;;0.35;0.35;;;28.40;38.60;29.30;100980.00;;;;4979169;28;92667;-72
2022/06/03 11:08:10;;;;;;;0.88;0.55;;;28.60;39.00;29.50;100986.00;;;;4993919;28;92459;-75
2022/06/03 11:10:52;;;;;;;0.57;0.50;;;28.90;38.10;29.50;100990.00;;;;4993349;28;92556;-73
2022/06/03 11:13:38;;;;;;;5.95;1.05;;;29.00;38.20;29.60;100986.00;;;;5004356;28;92587;-72
2022/06/03 11:16:21;;;;;;;0.70;0.70;;;29.00;38.10;29.40;100991.00;;;;4986481;28;93489;-73
2022/06/03 11:18:46;;;;;;;0.95;0.63;;;29.10;37.60;29.60;100978.00;;;;4960261;28;92462;-71
2022/06/03 11:21:29;;;;;;;1.60;0.45;;;29.10;37.90;29.70;100972.00;;;;4996999;28;102921;-74
2022/06/03 11:23:58;;;;;;;0.50;0.50;;;29.10;37.30;29.70;100964.00;;;;4987302;28;92423;-70
2022/06/03 11:26:37;;;;;;;1.10;0.55;;;29.20;37.70;29.80;100964.00;;;;4988973;28;113917;-71
2022/06/03 11:29:09;;;;;;;0.80;0.80;;;29.40;37.70;30.00;100944.00;;;;4983000;28;101887;-72
2022/06/03 11:31:41;;;;;;;0.80;0.60;;;29.40;37.60;30.30;100953.00;;;;4984955;28;97462;-74
2022/06/03 11:34:36;;;;;;;0.50;0.50;;;29.60;37.20;30.50;100937.00;;;;4981355;28;91548;-74
2022/06/03 11:37:09;;;;;;;1.00;0.60;;;29.90;37.70;30.70;100951.00;;;;4982467;28;94568;-75
2022/06/03 11:39:49;;;;;;;0.88;0.60;;;30.10;36.90;30.40;100943.00;;;;5016444;28;102831;-72
2022/06/03 11:42:33;;;;;;;0.77;0.77;;;30.00;35.90;30.60;100926.00;;;;4964404;28;93572;-72
2022/06/03 11:45:19;;;;;;;0.55;0.43;;;30.10;36.70;31.00;100913.00;;;;4998268;28;94785;-76
2022/06/03 11:47:54;;;;;;;1.08;0.98;;;30.40;37.60;31.30;100910.00;;;;4986415;28;92535;-72
2022/06/03 11:50:25;;;;;;;0.90;0.82;;;30.60;36.00;31.20;100904.00;;;;4988750;28;100855;-76
2022/06/03 11:52:52;;;;;;;0.50;0.50;;;30.70;35.20;31.20;100900.00;;;;4975691;28;93976;-73
2022/06/03 11:55:21;;;;;;;2.60;0.98;;;30.60;35.20;31.00;100892.00;;;;4972368;28;94542;-72
2022/06/03 11:58:21;;;;;;;0.52;0.52;;;30.50;35.50;30.80;100895.00;;;;4985346;28;92645;-73
2022/06/03 12:00:53;;;;;;;0.50;0.50;;;30.40;35.80;30.50;100893.00;;;;4926685;28;91981;-73
2022/06/03 12:03:51;;;;;;;0.80;0.80;;;30.10;35.70;30.30;100887.00;;;;4970413;28;92596;-72
2022/06/03 12:07:02;;;;;;;1.10;0.80;;;29.90;35.50;30.20;100887.00;;;;4991057;28;92674;-73
2022/06/03 12:09:45;;;;;;;3.05;1.15;;;29.90;35.50;30.30;100883.00;;;;4983993;28;94117;-72
2022/06/03 12:15:44;;;;;;;0.75;0.60;;;29.90;36.20;31.20;100877.00;;;;5003928;28;92103;-72
2022/06/03 12:18:39;;;;;;;1.50;0.70;;;30.40;36.40;31.70;100869.00;;;;4983717;28;92774;-76
2022/06/03 12:21:14;;;;;;;1.00;0.80;;;30.90;35.20;32.00;100869.00;;;;4986762;28;95490;-73
2022/06/03 12:23:41;;;;;;;0.70;0.52;;;31.20;35.30;32.10;100870.00;;;;4973303;28;93271;-73
2022/06/03 12:26:19;;;;;;;0.65;0.65;;;31.40;33.80;31.90;100855.00;;;;5007833;28;93021;-76
2022/06/03 12:28:49;;;;;;;1.05;0.80;;;31.40;34.00;32.10;100862.00;;;;5000459;28;92715;-73
2022/06/03 12:31:17;;;;;;;1.02;0.80;;;31.40;34.70;32.40;100853.00;;;;5005622;28;92602;-76
2022/06/03 12:33:49;;;;;;;0.40;0.40;;;31.60;34.30;32.50;100844.00;;;;4994480;28;103101;-75
2022/06/03 12:36:50;;;;;;;4.10;0.60;;;31.80;34.40;33.00;100847.00;;;;4983546;28;93488;-73
2022/06/03 12:39:25;;;;;;;0.47;0.47;;;32.10;34.90;33.30;100837.00;;;;4999346;28;93200;-73
2022/06/03 12:41:55;;;;;;;2.58;0.50;;;32.50;33.40;33.40;100851.00;;;;4997114;28;92274;-75
2022/06/03 12:44:51;;;;;;;0.85;0.82;;;32.60;33.00;33.10;100845.00;;;;4999072;28;92599;-72
2022/06/03 12:47:32;;;;;;;0.60;0.60;;;32.50;32.20;32.90;100838.00;;;;4991244;28;91954;-71
2022/06/03 12:50:04;;;;;;;0.45;0.45;;;32.40;32.30;33.00;100837.00;;;;5006319;28;93540;-75
2022/06/03 12:52:29;;;;;;;0.35;0.35;;;32.30;33.10;32.80;100844.00;;;;5002021;28;93268;-74
2022/06/03 12:55:24;;;;;;;0.57;0.57;;;32.40;32.60;32.50;100833.00;;;;5003510;28;91695;-72
2022/06/03 12:58:23;;;;;;;0.55;0.55;;;32.10;32.80;32.30;100827.00;;;;4983283;28;92727;-75